createdAt,value
2019-04-30T00:02:51.607Z,100332.28
2019-04-30T00:05:57.362Z,100337.61
2019-04-30T00:09:00.222Z,100343.67
2019-04-30T00:12:05.542Z,100342.22
2019-04-30T00:15:13.917Z,100333.84
2019-04-30T00:18:15.640Z,100343.16
2019-04-30T00:21:21.093Z,100342.80
2019-04-30T00:24:26.617Z,100338.45
2019-04-30T00:27:31.166Z,100341.47
2019-04-30T00:30:35.036Z,100337.71
2019-04-30T00:33:39.833Z,100332.75
2019-04-30T00:36:43.266Z,100334.47
2019-04-30T00:39:51.147Z,100333.61
2019-04-30T00:43:00.235Z,100324.77
2019-04-30T00:46:04.923Z,100319.45
2019-04-30T00:49:11.204Z,100324.91
2019-04-30T00:52:15.235Z,100330.35
2019-04-30T00:55:18.697Z,100330.70
2019-04-30T00:58:28.802Z,100334.92
2019-04-30T01:01:48.042Z,100334.34
2019-04-30T01:04:52.666Z,100340.36
2019-04-30T01:07:56.384Z,100333.13
2019-04-30T01:11:06.473Z,100339.66
2019-04-30T01:14:05.455Z,100342.31
2019-04-30T01:17:12.384Z,100335.52
2019-04-30T01:20:16.133Z,100336.84
2019-04-30T01:23:19.648Z,100334.19
2019-04-30T01:26:27.679Z,100337.58
2019-04-30T01:29:31.097Z,100336.25
2019-04-30T01:32:33.847Z,100333.47
2019-04-30T01:35:38.223Z,100332.14
2019-04-30T01:38:44.810Z,100331.79
2019-04-30T01:41:48.842Z,100334.45
2019-04-30T01:44:54.012Z,100340.35
2019-04-30T01:48:00.740Z,100337.11
2019-04-30T01:51:03.848Z,100338.05
2019-04-30T01:54:09.160Z,100331.16
2019-04-30T01:57:21.925Z,100335.03
2019-04-30T02:00:34.413Z,100333.34
2019-04-30T02:03:40.073Z,100330.69
2019-04-30T02:06:43.552Z,100331.63
2019-04-30T02:09:48.922Z,100329.70
2019-04-30T02:12:52.518Z,100330.41
2019-04-30T02:15:56.046Z,100328.73
2019-04-30T02:19:00.553Z,100337.56
2019-04-30T02:22:07.017Z,100342.88
2019-04-30T02:25:10.483Z,100332.83
2019-04-30T02:28:14.938Z,100340.45
2019-04-30T02:31:19.337Z,100345.77
2019-04-30T02:34:41.128Z,100349.64
2019-04-30T02:38:03.555Z,100353.39
2019-04-30T02:41:09.795Z,100353.75
2019-04-30T02:44:12.594Z,100359.53
2019-04-30T02:47:16.096Z,100367.62
2019-04-30T02:50:22.588Z,100373.33
2019-04-30T02:54:20.274Z,100374.66
2019-04-30T02:57:24.123Z,100378.65
2019-04-30T03:00:32.533Z,100380.44
2019-04-30T03:03:32.770Z,100385.17
2019-04-30T03:06:39.783Z,100380.44
2019-04-30T03:09:42.658Z,100381.18
2019-04-30T03:12:46.140Z,100381.77
2019-04-30T03:15:49.647Z,100384.42
2019-04-30T03:19:03.410Z,100382.63
2019-04-30T03:22:14.290Z,100381.41
2019-04-30T03:25:19.827Z,100387.83
2019-04-30T03:28:23.308Z,100389.73
2019-04-30T03:31:26.845Z,100386.72
2019-04-30T03:34:32.900Z,100383.67
2019-04-30T03:37:36.688Z,100382.57
2019-04-30T03:40:41.860Z,100381.23
2019-04-30T03:43:50.152Z,100376.42
2019-04-30T03:46:52.536Z,100375.09
2019-04-30T03:49:56.049Z,100381.98
2019-04-30T03:53:00.764Z,100381.62
2019-04-30T03:56:04.348Z,100392.27
2019-04-30T03:59:10.564Z,100382.10
2019-04-30T04:02:21.061Z,100388.86
2019-04-30T04:05:39.739Z,100389.36
2019-04-30T04:08:49.034Z,100384.76
2019-04-30T04:11:52.683Z,100384.88
2019-04-30T04:15:03.307Z,100390.80
2019-04-30T04:18:02.435Z,100392.84
2019-04-30T04:21:11.313Z,100396.48
2019-04-30T04:24:11.183Z,100393.81
2019-04-30T04:27:14.674Z,100405.03
2019-04-30T04:30:20.461Z,100398.39
2019-04-30T04:33:24.135Z,100406.98
2019-04-30T04:36:29.939Z,100406.98
2019-04-30T04:39:33.278Z,100415.31
2019-04-30T04:42:39.711Z,100411.32
2019-04-30T04:45:43.791Z,100413.63
2019-04-30T04:48:49.376Z,100419.87
2019-04-30T04:51:52.955Z,100420.27
2019-04-30T04:54:56.451Z,100420.63
2019-04-30T04:58:00.172Z,100419.87
2019-04-30T05:01:03.541Z,100423.50
2019-04-30T05:04:09.217Z,100421.82
2019-04-30T05:07:12.448Z,100426.05
2019-04-30T05:10:15.895Z,100435.11
2019-04-30T05:13:19.339Z,100429.44
2019-04-30T05:16:22.838Z,100433.17
2019-04-30T05:19:26.297Z,100439.92
2019-04-30T05:22:29.801Z,100442.11
2019-04-30T05:25:34.716Z,100441.40
2019-04-30T05:28:39.394Z,100443.80
2019-04-30T05:31:42.870Z,100442.84
2019-04-30T05:34:46.358Z,100447.66
2019-04-30T05:37:49.919Z,100448.52
2019-04-30T05:40:53.447Z,100450.70
2019-04-30T05:43:58.999Z,100441.87
2019-04-30T05:47:03.126Z,100447.66
2019-04-30T05:50:08.668Z,100447.19
2019-04-30T05:53:11.857Z,100452.25
2019-04-30T05:56:15.507Z,100444.63
2019-04-30T05:59:20.649Z,100452.72
2019-04-30T06:02:24.322Z,100445.97
2019-04-30T06:05:28.829Z,100444.63
2019-04-30T06:08:39.830Z,100442.95
2019-04-30T06:11:59.616Z,100450.17
2019-04-30T06:15:29.110Z,100446.19
2019-04-30T06:18:32.717Z,100443.66
2019-04-30T06:21:36.205Z,100443.53
2019-04-30T06:24:39.808Z,100445.10
2019-04-30T06:27:43.305Z,100444.50
2019-04-30T06:30:46.819Z,100440.52
2019-04-30T06:33:50.350Z,100447.98
2019-04-30T06:36:56.792Z,100443.24
2019-04-30T06:40:01.009Z,100442.67
2019-04-30T06:43:12.641Z,100441.89
2019-04-30T06:46:15.986Z,100442.64
2019-04-30T06:49:19.541Z,100439.27
2019-04-30T06:52:23.737Z,100443.14
2019-04-30T06:55:30.597Z,100439.51
2019-04-30T06:58:32.651Z,100444.83
2019-04-30T07:01:36.147Z,100438.70
2019-04-30T07:04:40.680Z,100436.87
2019-04-30T07:08:09.056Z,100438.34
2019-04-30T07:11:25.023Z,100435.30
2019-04-30T07:14:29.486Z,100436.63
2019-04-30T07:17:34.037Z,100439.28
2019-04-30T07:20:38.740Z,100440.26
2019-04-30T07:23:43.453Z,100448.37
2019-04-30T07:26:49.002Z,100447.05
2019-04-30T07:29:52.514Z,100441.01
2019-04-30T07:32:56.029Z,100445.12
2019-04-30T07:36:01.743Z,100449.70
2019-04-30T07:39:06.312Z,100451.39
2019-04-30T07:42:11.963Z,100444.02
2019-04-30T07:45:15.546Z,100450.23
2019-04-30T07:48:25.877Z,100450.23
2019-04-30T07:51:26.367Z,100455.55
2019-04-30T07:54:34.360Z,100450.08
2019-04-30T07:57:40.391Z,100448.28
2019-04-30T08:00:45.208Z,100446.59
2019-04-30T08:04:10.643Z,100450.08
2019-04-30T08:07:14.347Z,100450.36
2019-04-30T08:10:18.819Z,100456.03
2019-04-30T08:13:26.139Z,100455.28
2019-04-30T08:16:29.753Z,100459.28
2019-04-30T08:19:33.173Z,100459.44
2019-04-30T08:22:36.671Z,100464.02
2019-04-30T08:25:40.199Z,100465.34
2019-04-30T08:28:43.698Z,100463.16
2019-04-30T08:31:48.933Z,100461.25
2019-04-30T08:34:52.524Z,100456.03
2019-04-30T08:37:56.007Z,100466.31
2019-04-30T08:41:03.662Z,100464.98
2019-04-30T08:44:07.170Z,100463.27
2019-04-30T08:47:10.711Z,100466.31
2019-04-30T08:50:14.330Z,100465.09
2019-04-30T08:53:28.941Z,100466.89
2019-04-30T08:56:23.128Z,100462.69
2019-04-30T08:59:26.584Z,100462.22
2019-04-30T09:02:30.184Z,100454.48
2019-04-30T09:05:51.617Z,100469.47
2019-04-30T09:09:10.748Z,100466.09
2019-04-30T09:12:12.233Z,100461.13
2019-04-30T09:15:15.730Z,100460.05
2019-04-30T09:18:19.310Z,100454.48
2019-04-30T09:21:22.773Z,100455.06
2019-04-30T09:24:26.216Z,100462.23
2019-04-30T09:27:30.626Z,100459.94
2019-04-30T09:30:34.065Z,100461.84
2019-04-30T09:33:39.352Z,100459.94
2019-04-30T09:36:42.883Z,100458.96
2019-04-30T09:39:46.388Z,100460.69
2019-04-30T09:42:49.932Z,100462.37
2019-04-30T09:45:53.393Z,100462.15
2019-04-30T09:48:56.794Z,100463.83
2019-04-30T09:52:00.519Z,100459.48
2019-04-30T09:55:04.309Z,100454.30
2019-04-30T09:58:14.893Z,100451.99
2019-04-30T10:01:13.158Z,100452.74
2019-04-30T10:04:20.188Z,100445.12
2019-04-30T10:07:23.097Z,100448.39
2019-04-30T10:10:32.400Z,100451.31
2019-04-30T10:13:35.979Z,100452.03
2019-04-30T10:16:50.239Z,100455.83
2019-04-30T10:19:53.818Z,100447.97
2019-04-30T10:22:59.576Z,100446.05
2019-04-30T10:26:02.987Z,100439.47
2019-04-30T10:29:06.783Z,100438.30
2019-04-30T10:32:10.287Z,100435.52
2019-04-30T10:35:13.802Z,100428.17
2019-04-30T10:38:19.388Z,100427.42
2019-04-30T10:41:23.663Z,100423.08
2019-04-30T10:44:27.172Z,100422.97
2019-04-30T10:47:32.683Z,100412.79
2019-04-30T10:50:35.995Z,100422.46
2019-04-30T10:53:40.526Z,100417.14
2019-04-30T10:56:44.020Z,100417.76
2019-04-30T10:59:48.706Z,100403.25
2019-04-30T11:02:52.313Z,100403.02
2019-04-30T11:05:55.751Z,100405.67
2019-04-30T11:08:59.250Z,100399.37
2019-04-30T11:12:03.224Z,100400.12
2019-04-30T11:15:06.829Z,100399.73
2019-04-30T11:18:10.642Z,100409.21
2019-04-30T11:21:15.573Z,100403.77
2019-04-30T11:24:19.686Z,100386.20
2019-04-30T11:27:23.999Z,100388.63
2019-04-30T11:30:29.769Z,100393.36
2019-04-30T11:33:33.583Z,100389.84
2019-04-30T11:36:38.941Z,100374.72
2019-04-30T11:39:42.480Z,100379.81
2019-04-30T11:42:48.029Z,100375.47
2019-04-30T11:46:20.719Z,100370.14
2019-04-30T11:49:24.396Z,100377.74
2019-04-30T11:52:28.008Z,100375.47
2019-04-30T11:55:31.514Z,100367.83
2019-04-30T11:58:35.008Z,100373.52
2019-04-30T12:01:38.989Z,100367.48
2019-04-30T12:04:42.414Z,100377.50
2019-04-30T12:08:00.971Z,100369.90
2019-04-30T12:11:19.853Z,100365.63
2019-04-30T12:14:24.265Z,100366.26
2019-04-30T12:17:27.763Z,100366.97
2019-04-30T12:20:33.574Z,100373.03
2019-04-30T12:23:36.731Z,100376.44
2019-04-30T12:26:40.321Z,100381.48
2019-04-30T12:29:43.805Z,100370.59
2019-04-30T12:32:49.234Z,100364.56
2019-04-30T12:35:52.645Z,100372.31
2019-04-30T12:38:56.159Z,100365.27
2019-04-30T12:42:01.965Z,100361.03
2019-04-30T12:45:05.034Z,100358.78
2019-04-30T12:48:14.876Z,100361.16
2019-04-30T12:51:45.623Z,100346.30
2019-04-30T12:54:54.549Z,100355.02
2019-04-30T12:58:01.129Z,100351.85
2019-04-30T13:01:03.645Z,100344.95
2019-04-30T13:04:09.637Z,100344.81
2019-04-30T13:07:13.284Z,100339.88
2019-04-30T13:10:18.061Z,100332.94
2019-04-30T13:13:22.369Z,100337.32
2019-04-30T13:16:32.103Z,100329.67
2019-04-30T13:19:35.672Z,100330.41
2019-04-30T13:22:39.268Z,100324.58
2019-04-30T13:25:51.240Z,100325.89
2019-04-30T13:29:06.951Z,100319.23
2019-04-30T13:32:10.426Z,100315.97
2019-04-30T13:35:14.209Z,100314.52
2019-04-30T13:38:22.633Z,100310.64
2019-04-30T13:41:46.116Z,100303.38
2019-04-30T13:44:49.506Z,100298.40
2019-04-30T13:47:56.181Z,100305.16
2019-04-30T13:50:59.686Z,100290.86
2019-04-30T13:54:03.252Z,100297.39
2019-04-30T13:57:06.700Z,100282.61
2019-04-30T14:00:12.135Z,100276.30
2019-04-30T14:03:22.938Z,100273.38
2019-04-30T14:06:29.163Z,100280.42
2019-04-30T14:09:35.650Z,100275.22
2019-04-30T14:12:44.064Z,100274.23
2019-04-30T14:15:49.046Z,100276.88
2019-04-30T14:18:52.739Z,100280.97
2019-04-30T14:21:56.253Z,100276.75
2019-04-30T14:24:59.703Z,100276.14
2019-04-30T14:28:03.252Z,100280.40
2019-04-30T14:31:06.847Z,100266.72
2019-04-30T14:34:10.417Z,100271.80
2019-04-30T14:37:13.940Z,100268.28
2019-04-30T14:40:19.955Z,100262.95
2019-04-30T14:43:42.788Z,100261.70
2019-04-30T14:46:58.366Z,100259.52
2019-04-30T14:50:13.310Z,100267.73
2019-04-30T14:53:35.942Z,100263.61
2019-04-30T14:56:49.391Z,100254.79
2019-04-30T15:00:21.660Z,100254.66
2019-04-30T15:03:25.494Z,100256.59
2019-04-30T15:06:29.287Z,100258.28
2019-04-30T15:09:32.759Z,100258.41
2019-04-30T15:12:36.277Z,100254.89
2019-04-30T15:15:39.865Z,100259.61
2019-04-30T15:18:44.325Z,100257.33
2019-04-30T15:21:47.824Z,100252.70
2019-04-30T15:24:51.286Z,100249.90
2019-04-30T15:27:54.806Z,100250.41
2019-04-30T15:30:58.714Z,100253.42
2019-04-30T15:34:10.791Z,100245.42
2019-04-30T15:37:21.568Z,100240.44
2019-04-30T15:40:20.415Z,100240.79
2019-04-30T15:43:23.986Z,100239.61
2019-04-30T15:46:27.591Z,100236.95
2019-04-30T15:49:31.186Z,100244.95
2019-04-30T15:52:34.817Z,100245.68
2019-04-30T15:55:38.386Z,100242.67
2019-04-30T15:58:43.626Z,100239.48
2019-04-30T16:01:50.225Z,100243.14
2019-04-30T16:05:08.985Z,100241.81
2019-04-30T16:08:26.064Z,100246.79
2019-04-30T16:11:49.211Z,100240.13
2019-04-30T16:14:52.718Z,100239.02
2019-04-30T16:17:58.843Z,100244.00
2019-04-30T16:21:02.204Z,100233.68
2019-04-30T16:24:05.802Z,100235.02
2019-04-30T16:27:10.449Z,100227.02
2019-04-30T16:30:13.876Z,100228.00
2019-04-30T16:33:19.488Z,100230.28
2019-04-30T16:36:23.345Z,100230.66
2019-04-30T16:39:28.779Z,100228.00
2019-04-30T16:42:32.544Z,100220.00
2019-04-30T16:45:36.257Z,100220.95
2019-04-30T16:48:40.210Z,100220.22
2019-04-30T16:51:44.047Z,100220.95
2019-04-30T16:54:49.577Z,100218.07
2019-04-30T16:57:53.471Z,100216.64
2019-04-30T17:00:59.194Z,100220.42
2019-04-30T17:04:09.150Z,100214.48
2019-04-30T17:07:45.029Z,100212.67
2019-04-30T17:10:59.507Z,100210.84
2019-04-30T17:14:05.790Z,100209.41
2019-04-30T17:17:09.300Z,100211.72
2019-04-30T17:20:13.174Z,100214.05
2019-04-30T17:23:19.117Z,100218.98
2019-04-30T17:26:22.216Z,100214.99
2019-04-30T17:29:25.736Z,100219.87
2019-04-30T17:32:30.371Z,100212.48
2019-04-30T17:35:33.807Z,100216.48
2019-04-30T17:38:37.457Z,100214.10
2019-04-30T17:41:40.926Z,100219.78
2019-04-30T17:44:53.936Z,100217.27
2019-04-30T17:47:49.767Z,100216.63
2019-04-30T17:50:53.181Z,100216.29
2019-04-30T17:54:15.326Z,100218.60
2019-04-30T17:57:29.767Z,100220.63
2019-04-30T18:00:24.599Z,100220.31
2019-04-30T18:03:28.950Z,100224.78
2019-04-30T18:06:32.413Z,100224.75
2019-04-30T18:09:35.829Z,100222.34
2019-04-30T18:12:39.311Z,100226.59
2019-04-30T18:15:42.779Z,100227.20
2019-04-30T18:18:52.242Z,100233.26
2019-04-30T18:22:00.042Z,100230.84
2019-04-30T18:25:16.510Z,100231.83
2019-04-30T18:28:20.041Z,100234.48
2019-04-30T18:31:23.464Z,100235.92
2019-04-30T18:34:29.152Z,100235.84
2019-04-30T18:37:32.288Z,100237.55
2019-04-30T18:40:35.823Z,100238.16
2019-04-30T18:43:40.501Z,100240.56
2019-04-30T18:46:44.121Z,100242.34
2019-04-30T18:49:49.389Z,100245.42
2019-04-30T18:52:54.161Z,100247.95
2019-04-30T18:55:59.190Z,100255.59
2019-04-30T18:59:03.038Z,100256.80
2019-04-30T19:02:08.636Z,100248.80
2019-04-30T19:05:18.026Z,100252.92
2019-04-30T19:08:29.420Z,100255.22
2019-04-30T19:11:39.506Z,100254.03
2019-04-30T19:15:12.562Z,100259.60
2019-04-30T19:18:24.408Z,100253.92
2019-04-30T19:21:27.882Z,100260.08
2019-04-30T19:24:31.287Z,100261.27
2019-04-30T19:27:34.747Z,100262.73
2019-04-30T19:30:39.002Z,100265.52
2019-04-30T19:33:42.485Z,100264.55
2019-04-30T19:36:46.173Z,100268.06
2019-04-30T19:39:51.103Z,100268.54
2019-04-30T19:42:54.815Z,100263.21
2019-04-30T19:45:59.205Z,100260.90
2019-04-30T19:49:02.897Z,100259.56
2019-04-30T19:52:09.385Z,100263.31
2019-04-30T19:55:11.687Z,100268.99
2019-04-30T19:58:28.520Z,100265.27
2019-04-30T20:01:20.651Z,100260.65
2019-04-30T20:04:33.400Z,100262.48
2019-04-30T20:07:29.749Z,100260.30
2019-04-30T20:10:33.375Z,100263.95
2019-04-30T20:13:37.453Z,100267.81
2019-04-30T20:16:40.926Z,100266.75
2019-04-30T20:19:44.409Z,100266.75
2019-04-30T20:22:47.924Z,100270.02
2019-04-30T20:25:51.399Z,100271.94
2019-04-30T20:28:55.947Z,100272.57
2019-04-30T20:31:59.451Z,100270.89
2019-04-30T20:35:02.945Z,100278.98
2019-04-30T20:38:24.156Z,100271.92
2019-04-30T20:41:28.675Z,100276.30
2019-04-30T20:44:32.245Z,100270.04
2019-04-30T20:47:35.674Z,100270.98
2019-04-30T20:50:39.285Z,100263.63
2019-04-30T20:53:42.790Z,100263.63
2019-04-30T20:56:48.341Z,100261.91
2019-04-30T20:59:52.471Z,100260.47
2019-04-30T21:02:56.184Z,100262.43
2019-04-30T21:06:00.657Z,100262.43
2019-04-30T21:09:06.046Z,100263.02
2019-04-30T21:12:09.509Z,100260.02
2019-04-30T21:15:13.128Z,100258.06
2019-04-30T21:18:16.564Z,100253.24
2019-04-30T21:21:20.534Z,100255.17
2019-04-30T21:24:24.078Z,100251.30
2019-04-30T21:27:28.285Z,100257.83
2019-04-30T21:30:32.705Z,100258.30
2019-04-30T21:33:41.314Z,100260.38
2019-04-30T21:36:44.878Z,100260.27
2019-04-30T21:39:50.072Z,100265.20
2019-04-30T21:42:53.646Z,100263.63
2019-04-30T21:45:59.346Z,100259.29
2019-04-30T21:49:02.603Z,100256.88
2019-04-30T21:52:06.215Z,100253.74
2019-04-30T21:55:09.762Z,100259.42
2019-04-30T21:58:13.214Z,100258.44
2019-04-30T22:01:20.322Z,100260.63
2019-04-30T22:04:23.783Z,100256.02
2019-04-30T22:07:29.343Z,100253.00
2019-04-30T22:10:32.627Z,100253.74
2019-04-30T22:13:36.128Z,100258.56
2019-04-30T22:16:40.671Z,100254.80
2019-04-30T22:19:44.206Z,100254.57
2019-04-30T22:22:48.984Z,100250.23
2019-04-30T22:25:52.602Z,100255.79
2019-04-30T22:28:56.101Z,100264.51
2019-04-30T22:32:00.635Z,100266.78
2019-04-30T22:35:22.053Z,100263.42
2019-04-30T22:38:29.174Z,100263.42
2019-04-30T22:41:33.970Z,100267.53
2019-04-30T22:44:37.601Z,100267.17
2019-04-30T22:47:41.079Z,100267.87
2019-04-30T22:50:45.570Z,100264.98
2019-04-30T22:53:49.994Z,100262.80
2019-04-30T22:56:53.616Z,100263.30
2019-04-30T22:59:57.124Z,100259.52
2019-04-30T23:03:08.375Z,100255.14
2019-04-30T23:06:11.896Z,100249.34
2019-04-30T23:09:16.675Z,100247.78
2019-04-30T23:12:20.099Z,100244.50
2019-04-30T23:15:23.546Z,100249.11
2019-04-30T23:18:27.124Z,100251.30
2019-04-30T23:21:30.538Z,100243.44
2019-04-30T23:24:34.129Z,100242.11
2019-04-30T23:27:37.659Z,100239.69
2019-04-30T23:30:41.178Z,100236.91
2019-04-30T23:33:44.640Z,100236.05
2019-04-30T23:36:48.160Z,100233.38
2019-04-30T23:39:52.783Z,100229.98
2019-04-30T23:42:57.412Z,100230.84
2019-04-30T23:46:00.888Z,100222.98
2019-04-30T23:49:04.391Z,100215.23
2019-04-30T23:52:07.803Z,100215.98
2019-04-30T23:55:11.389Z,100212.58
2019-04-30T23:58:14.897Z,100212.58
